Time;durP1;ratioP1;P1;durP2;ratioP2;P2;SDS_P1;SDS_P2;PMS_P1;PMS_P2;Temp;Humidity;BMP_temperature;BMP_pressure;BME280_temperature;BME280_humidity;BME280_pressure;Samples;Min_cycle;Max_cycle;Signal;HPM_P1;HPM_P2
2022/10/28 00:00:55;;;;;;;1.20;1.20;;;10.20;99.90;;;;;;5072667;28;20429;-66
2022/10/28 00:03:21;;;;;;;2.00;1.83;;;10.20;99.90;;;;;;5080923;28;20456;-66
2022/10/28 00:05:48;;;;;;;2.00;1.65;;;10.20;99.90;;;;;;5067090;28;20431;-66
2022/10/28 00:08:15;;;;;;;1.20;1.10;;;10.20;99.90;;;;;;5068842;28;20432;-66
2022/10/28 00:10:41;;;;;;;1.35;1.30;;;10.20;99.90;;;;;;5076753;28;20422;-65
2022/10/28 00:13:08;;;;;;;1.58;1.45;;;10.30;99.90;;;;;;5054623;28;20903;-66
2022/10/28 00:15:35;;;;;;;1.95;1.70;;;10.40;99.90;;;;;;5076014;28;20433;-66
2022/10/28 00:18:02;;;;;;;2.20;1.70;;;10.50;99.90;;;;;;5060817;28;20431;-65
2022/10/28 00:20:30;;;;;;;1.65;1.55;;;10.50;99.90;;;;;;5050333;28;20428;-65
2022/10/28 00:22:59;;;;;;;2.38;1.60;;;10.50;99.90;;;;;;5065532;28;20545;-65
2022/10/28 00:25:26;;;;;;;1.60;1.40;;;10.50;99.90;;;;;;5079135;28;20426;-65
2022/10/28 00:27:53;;;;;;;1.92;1.40;;;10.50;99.90;;;;;;5050988;28;20433;-65
2022/10/28 00:30:20;;;;;;;1.58;1.48;;;10.60;99.90;;;;;;5067007;28;21080;-65
2022/10/28 00:32:47;;;;;;;1.38;1.30;;;10.60;99.90;;;;;;5051384;28;20439;-65
2022/10/28 00:35:13;;;;;;;1.88;1.40;;;10.60;99.90;;;;;;5065242;28;20424;-66
2022/10/28 00:37:40;;;;;;;1.13;1.08;;;10.60;99.90;;;;;;5069732;28;20815;-66
2022/10/28 00:40:08;;;;;;;1.77;1.67;;;10.60;99.90;;;;;;5062415;28;20429;-66
2022/10/28 00:42:34;;;;;;;1.27;1.27;;;10.70;99.90;;;;;;5042823;28;21005;-66
2022/10/28 00:45:03;;;;;;;1.60;1.50;;;10.70;99.90;;;;;;5057964;28;20429;-66
2022/10/28 00:47:42;;;;;;;1.93;1.60;;;10.70;99.90;;;;;;5067675;28;20484;-66
2022/10/28 00:50:11;;;;;;;1.98;1.42;;;10.70;99.90;;;;;;5062317;28;20423;-66
2022/10/28 00:52:50;;;;;;;1.48;1.38;;;10.70;99.90;;;;;;5065691;28;20510;-65
2022/10/28 00:55:19;;;;;;;1.25;1.15;;;10.60;99.90;;;;;;5066893;28;21004;-66
2022/10/28 00:57:47;;;;;;;1.00;1.00;;;10.70;99.90;;;;;;5071409;28;20431;-66
2022/10/28 01:00:14;;;;;;;1.80;1.30;;;10.80;99.90;;;;;;5065956;28;20427;-66
2022/10/28 01:02:47;;;;;;;1.20;1.10;;;10.80;99.90;;;;;;5071021;28;20434;-65
2022/10/28 01:05:20;;;;;;;1.17;1.08;;;10.80;99.90;;;;;;5072960;28;20949;-65
2022/10/28 01:07:48;;;;;;;0.77;0.77;;;10.90;99.90;;;;;;5072442;28;20495;-65
2022/10/28 01:10:16;;;;;;;0.70;0.70;;;10.90;99.90;;;;;;5068351;28;20425;-65
2022/10/28 01:12:57;;;;;;;3.10;0.90;;;11.00;99.90;;;;;;5060054;28;20427;-65
2022/10/28 01:15:40;;;;;;;1.20;1.02;;;11.00;99.90;;;;;;5070416;28;20441;-65
2022/10/28 01:18:20;;;;;;;1.90;0.82;;;11.00;99.90;;;;;;5058665;28;20425;-66
2022/10/28 01:21:15;;;;;;;1.40;1.30;;;11.00;99.90;;;;;;5068432;28;20427;-66
2022/10/28 01:23:51;;;;;;;1.27;1.17;;;11.00;99.90;;;;;;5060394;28;20425;-66
2022/10/28 01:26:30;;;;;;;1.35;1.15;;;11.00;99.90;;;;;;5071838;28;20516;-65
2022/10/28 01:29:15;;;;;;;1.17;1.10;;;10.90;99.90;;;;;;5084594;28;20898;-65
2022/10/28 01:31:59;;;;;;;1.55;0.93;;;10.80;99.90;;;;;;5088033;28;20445;-65
2022/10/28 01:34:41;;;;;;;1.10;1.10;;;10.80;99.90;;;;;;5089134;28;20430;-66
2022/10/28 01:37:17;;;;;;;0.63;0.63;;;10.80;99.90;;;;;;5089572;28;20489;-66
2022/10/28 01:40:06;;;;;;;1.30;1.10;;;10.80;99.90;;;;;;5080180;28;20566;-66
2022/10/28 01:43:08;;;;;;;1.10;1.10;;;10.90;99.90;;;;;;5054345;28;20435;-66
2022/10/28 01:46:04;;;;;;;0.85;0.85;;;10.90;99.90;;;;;;5025546;28;20442;-66
2022/10/28 01:48:38;;;;;;;1.15;1.13;;;10.90;99.90;;;;;;5080386;28;20448;-66
2022/10/28 01:51:18;;;;;;;1.23;1.13;;;11.00;99.90;;;;;;5074263;28;20428;-66
2022/10/28 01:53:49;;;;;;;0.88;0.88;;;11.00;99.90;;;;;;5090493;28;20424;-66
2022/10/28 01:56:20;;;;;;;1.60;0.77;;;11.00;99.90;;;;;;5096717;28;20428;-65
2022/10/28 01:58:48;;;;;;;0.90;0.90;;;11.10;99.90;;;;;;5085060;28;20430;-66
2022/10/28 02:01:16;;;;;;;0.70;0.70;;;11.10;99.90;;;;;;5084335;28;20429;-66
2022/10/28 02:03:46;;;;;;;0.90;0.90;;;11.10;99.90;;;;;;5083397;28;20459;-66
2022/10/28 02:06:19;;;;;;;0.52;0.52;;;11.10;99.90;;;;;;5089923;28;20431;-65
2022/10/28 02:09:13;;;;;;;1.02;1.02;;;11.10;99.90;;;;;;5098271;28;20426;-65
2022/10/28 02:11:44;;;;;;;1.15;1.08;;;11.10;99.90;;;;;;5080446;28;20523;-65
2022/10/28 02:14:37;;;;;;;0.93;0.93;;;11.20;99.90;;;;;;5080700;28;20441;-65
2022/10/28 02:17:05;;;;;;;3.40;0.93;;;11.10;99.90;;;;;;5099354;28;20815;-65
2022/10/28 02:19:53;;;;;;;1.00;1.00;;;11.20;99.90;;;;;;5079223;28;20473;-65
2022/10/28 02:22:34;;;;;;;0.98;0.98;;;11.20;99.90;;;;;;5087957;28;20462;-65
2022/10/28 02:25:19;;;;;;;1.58;1.10;;;11.20;99.90;;;;;;5076179;28;20432;-65
2022/10/28 02:27:52;;;;;;;1.35;1.15;;;11.20;99.90;;;;;;5073485;28;20427;-65
2022/10/28 02:30:48;;;;;;;1.20;1.10;;;11.20;99.90;;;;;;5080973;28;20424;-65
2022/10/28 02:33:21;;;;;;;0.75;0.75;;;11.30;99.90;;;;;;5085875;28;20437;-65
2022/10/28 02:35:56;;;;;;;0.90;0.90;;;11.30;99.90;;;;;;5081387;28;20439;-65
2022/10/28 02:38:29;;;;;;;1.05;1.00;;;11.30;99.90;;;;;;5079619;28;20428;-65
2022/10/28 02:41:01;;;;;;;2.95;1.10;;;11.30;99.90;;;;;;5084797;28;20435;-65
2022/10/28 02:43:31;;;;;;;1.67;0.97;;;11.30;99.90;;;;;;5091102;28;20421;-65
2022/10/28 02:46:02;;;;;;;1.10;1.00;;;11.20;99.90;;;;;;5079222;28;20437;-65
2022/10/28 02:48:47;;;;;;;0.90;0.90;;;11.20;99.90;;;;;;5088250;28;20425;-65
2022/10/28 02:51:21;;;;;;;0.93;0.93;;;11.30;99.90;;;;;;5083916;28;20428;-66
2022/10/28 02:54:06;;;;;;;1.10;0.88;;;11.30;99.90;;;;;;5086828;28;20477;-66
2022/10/28 02:56:51;;;;;;;1.10;0.93;;;11.30;99.90;;;;;;5091305;28;20473;-65
2022/10/28 02:59:18;;;;;;;2.25;0.93;;;11.40;99.90;;;;;;5078874;28;20441;-65
2022/10/28 03:01:45;;;;;;;0.90;0.90;;;11.40;99.90;;;;;;5079055;28;20432;-65
2022/10/28 03:04:12;;;;;;;1.00;1.00;;;11.40;99.90;;;;;;5086990;28;20437;-65
2022/10/28 03:06:38;;;;;;;1.67;1.02;;;11.40;99.90;;;;;;5092719;28;20908;-65
2022/10/28 03:09:05;;;;;;;1.00;1.00;;;11.50;99.90;;;;;;5080006;28;20430;-65
2022/10/28 03:11:32;;;;;;;0.90;0.85;;;11.50;99.90;;;;;;5092092;28;20769;-65
2022/10/28 03:13:58;;;;;;;1.08;0.90;;;11.50;99.90;;;;;;5066785;28;20972;-65
2022/10/28 03:16:25;;;;;;;0.90;0.77;;;11.60;99.90;;;;;;5096391;28;20493;-65
2022/10/28 03:18:53;;;;;;;2.47;1.17;;;11.60;99.90;;;;;;5076894;28;20829;-65
2022/10/28 03:21:20;;;;;;;0.88;0.85;;;11.60;99.90;;;;;;5079470;28;21207;-65
2022/10/28 03:23:46;;;;;;;0.95;0.95;;;11.60;99.90;;;;;;5089079;28;20901;-65
2022/10/28 03:26:13;;;;;;;0.50;0.50;;;11.60;99.90;;;;;;5071853;28;20433;-66
2022/10/28 03:28:40;;;;;;;0.90;0.90;;;11.70;99.90;;;;;;5080962;28;20410;-65
2022/10/28 03:31:07;;;;;;;1.30;1.20;;;11.80;99.90;;;;;;5093418;28;20443;-65
2022/10/28 03:33:36;;;;;;;1.08;1.02;;;11.80;99.90;;;;;;5102164;28;20425;-65
2022/10/28 03:36:04;;;;;;;1.17;1.17;;;11.80;99.90;;;;;;5076312;28;20426;-65
2022/10/28 03:38:33;;;;;;;0.93;0.93;;;11.80;99.90;;;;;;5086673;28;20422;-65
2022/10/28 03:41:00;;;;;;;0.80;0.80;;;11.90;99.90;;;;;;5087016;28;20436;-66
2022/10/28 03:43:27;;;;;;;1.40;1.03;;;12.00;99.90;;;;;;5077906;28;20426;-66
2022/10/28 03:45:53;;;;;;;1.40;1.35;;;12.00;99.90;;;;;;5072317;28;20428;-66
2022/10/28 03:48:20;;;;;;;1.40;1.30;;;12.10;99.90;;;;;;5089789;28;20438;-66
2022/10/28 03:50:50;;;;;;;1.30;0.90;;;12.10;99.90;;;;;;5083645;28;20967;-65
2022/10/28 03:53:17;;;;;;;2.50;1.40;;;12.20;99.90;;;;;;5096857;28;20491;-65
2022/10/28 03:55:49;;;;;;;1.20;1.20;;;12.10;99.90;;;;;;5091446;28;20425;-65
2022/10/28 03:58:16;;;;;;;2.80;1.40;;;12.10;99.90;;;;;;5084867;28;20428;-65
2022/10/28 04:00:43;;;;;;;1.10;1.10;;;12.10;99.90;;;;;;5102926;27;20428;-65
2022/10/28 04:03:09;;;;;;;1.45;1.35;;;12.10;99.90;;;;;;5086076;28;20433;-65
2022/10/28 04:05:36;;;;;;;3.60;1.00;;;12.00;99.90;;;;;;5080788;28;20427;-65
2022/10/28 04:08:05;;;;;;;1.15;1.15;;;12.10;99.90;;;;;;5092950;28;20432;-65
2022/10/28 04:10:32;;;;;;;1.02;1.02;;;12.00;99.90;;;;;;5084757;28;20499;-64
2022/10/28 04:13:00;;;;;;;1.10;1.10;;;12.00;99.90;;;;;;5093997;28;20692;-65
2022/10/28 04:15:27;;;;;;;4.90;1.30;;;12.00;99.90;;;;;;5093958;28;20416;-65
2022/10/28 04:17:54;;;;;;;1.00;1.00;;;12.00;99.90;;;;;;5090932;28;20445;-65
2022/10/28 04:20:21;;;;;;;1.08;1.08;;;12.00;99.90;;;;;;5090489;28;20420;-65
2022/10/28 04:22:47;;;;;;;1.90;1.27;;;12.10;99.90;;;;;;5076797;28;20421;-65
2022/10/28 04:25:24;;;;;;;0.88;0.88;;;12.10;99.90;;;;;;5076671;28;21141;-65
2022/10/28 04:27:53;;;;;;;1.60;1.50;;;12.00;99.90;;;;;;5085893;28;20421;-65
2022/10/28 04:30:21;;;;;;;1.70;1.40;;;12.00;99.90;;;;;;5102327;28;20493;-65
2022/10/28 04:32:47;;;;;;;1.05;1.05;;;12.00;99.90;;;;;;5080422;28;20425;-65
2022/10/28 04:35:14;;;;;;;1.80;1.25;;;11.90;99.90;;;;;;5086374;28;20508;-66
2022/10/28 04:37:41;;;;;;;1.63;1.17;;;11.90;99.90;;;;;;5088002;28;20422;-65
2022/10/28 04:40:08;;;;;;;1.50;1.40;;;11.90;99.90;;;;;;5085186;28;20430;-65
2022/10/28 04:42:35;;;;;;;1.17;0.83;;;11.80;99.90;;;;;;5073778;28;20428;-65
2022/10/28 04:45:02;;;;;;;1.17;1.15;;;11.80;99.90;;;;;;5086903;28;20463;-65
2022/10/28 04:47:32;;;;;;;1.20;1.20;;;11.80;99.90;;;;;;5085094;28;20741;-65
2022/10/28 04:49:58;;;;;;;1.25;1.10;;;11.70;99.90;;;;;;5080388;28;20510;-65
2022/10/28 04:52:25;;;;;;;1.40;1.02;;;11.60;99.90;;;;;;5102338;28;20428;-64
2022/10/28 04:54:52;;;;;;;1.15;1.10;;;11.60;99.90;;;;;;5070337;28;20430;-65
2022/10/28 04:57:21;;;;;;;1.20;1.20;;;11.50;99.90;;;;;;5079961;28;20422;-65
2022/10/28 04:59:48;;;;;;;1.52;1.42;;;11.50;99.90;;;;;;5071179;28;20432;-65
2022/10/28 05:02:15;;;;;;;1.40;1.30;;;11.50;99.90;;;;;;5080624;28;20479;-65
2022/10/28 05:04:41;;;;;;;1.05;1.00;;;11.40;99.90;;;;;;5075077;28;20435;-65
2022/10/28 05:07:08;;;;;;;1.33;1.23;;;11.40;99.90;;;;;;5084234;28;20426;-66
2022/10/28 05:09:35;;;;;;;1.20;1.20;;;11.30;99.90;;;;;;5080870;28;20460;-65
2022/10/28 05:12:02;;;;;;;2.45;2.20;;;11.30;99.90;;;;;;5081941;28;20431;-65
2022/10/28 05:14:28;;;;;;;3.20;2.67;;;11.30;99.90;;;;;;5081566;28;20426;-65
2022/10/28 05:16:55;;;;;;;2.40;2.00;;;11.20;99.90;;;;;;5085531;28;20436;-65
2022/10/28 05:19:22;;;;;;;1.85;1.75;;;11.10;99.90;;;;;;5077196;28;20528;-65
2022/10/28 05:21:48;;;;;;;1.33;1.33;;;11.10;99.90;;;;;;5093812;28;20429;-65
2022/10/28 05:24:15;;;;;;;1.67;1.40;;;11.10;99.90;;;;;;5085917;28;20425;-65
2022/10/28 05:26:42;;;;;;;1.20;1.20;;;11.10;99.90;;;;;;5085138;28;20429;-65
2022/10/28 05:29:11;;;;;;;1.35;1.27;;;11.10;99.90;;;;;;5076919;28;20433;-65
2022/10/28 05:31:40;;;;;;;1.38;1.27;;;11.10;99.90;;;;;;5079224;28;20431;-65
2022/10/28 05:34:07;;;;;;;1.33;1.27;;;11.10;99.90;;;;;;5064046;28;20427;-65
2022/10/28 05:36:34;;;;;;;1.58;1.48;;;11.10;99.90;;;;;;5079436;28;20426;-65
2022/10/28 05:39:00;;;;;;;2.00;1.40;;;11.00;99.90;;;;;;5093260;28;20779;-65
2022/10/28 05:41:27;;;;;;;1.30;1.20;;;11.00;99.90;;;;;;5073632;28;20844;-65
2022/10/28 05:43:54;;;;;;;2.92;1.20;;;11.10;99.90;;;;;;5078539;28;20979;-65
2022/10/28 05:46:21;;;;;;;1.10;1.10;;;11.10;99.90;;;;;;5089261;28;20426;-65
2022/10/28 05:48:50;;;;;;;1.15;1.13;;;11.00;99.90;;;;;;5078152;28;20943;-65
2022/10/28 05:51:19;;;;;;;1.27;1.17;;;11.00;99.90;;;;;;5069568;28;20557;-65
2022/10/28 05:53:46;;;;;;;1.20;1.10;;;10.90;99.90;;;;;;5083732;28;20443;-65
2022/10/28 05:56:12;;;;;;;1.20;1.05;;;10.80;99.90;;;;;;5078047;28;20430;-65
2022/10/28 05:58:39;;;;;;;1.70;1.02;;;10.70;99.90;;;;;;5079198;28;20903;-65
2022/10/28 06:01:07;;;;;;;1.80;1.27;;;10.70;99.90;;;;;;5074021;28;20497;-65
2022/10/28 06:03:34;;;;;;;0.80;0.80;;;10.70;99.90;;;;;;5094786;28;20430;-65
2022/10/28 06:06:00;;;;;;;0.85;0.65;;;10.70;99.90;;;;;;5085103;28;20468;-64
2022/10/28 06:08:27;;;;;;;1.10;1.10;;;10.80;99.90;;;;;;5087376;28;20431;-65
2022/10/28 06:10:54;;;;;;;0.90;0.90;;;10.80;99.90;;;;;;5085397;28;20418;-67
2022/10/28 06:13:22;;;;;;;1.85;1.20;;;10.90;99.90;;;;;;5079068;28;20440;-64
2022/10/28 06:15:55;;;;;;;0.93;0.93;;;10.90;99.90;;;;;;5079622;28;20428;-64
2022/10/28 06:18:23;;;;;;;1.45;0.98;;;11.00;99.90;;;;;;5104546;27;20533;-63
2022/10/28 06:20:52;;;;;;;1.20;1.10;;;11.10;99.90;;;;;;5103518;28;20898;-64
2022/10/28 06:23:21;;;;;;;2.05;1.70;;;11.20;99.90;;;;;;5096916;28;20543;-63
2022/10/28 06:25:47;;;;;;;9.25;6.30;;;11.20;99.90;;;;;;5101391;28;20882;-64
2022/10/28 06:28:15;;;;;;;4.75;3.10;;;11.20;99.90;;;;;;5098690;28;20923;-65
2022/10/28 06:30:41;;;;;;;1.77;1.67;;;11.30;99.90;;;;;;5110795;28;20424;-64
2022/10/28 06:33:08;;;;;;;1.00;1.00;;;11.40;99.90;;;;;;5102041;28;20426;-65
2022/10/28 06:35:35;;;;;;;0.75;0.75;;;11.50;99.90;;;;;;5105420;28;20432;-64
2022/10/28 06:38:01;;;;;;;1.10;1.10;;;11.50;99.90;;;;;;5107509;28;20427;-65
2022/10/28 06:40:36;;;;;;;1.27;1.10;;;11.60;99.90;;;;;;5103953;28;20435;-66
2022/10/28 06:43:04;;;;;;;1.20;1.10;;;11.60;99.90;;;;;;5096881;28;20463;-65
2022/10/28 06:45:33;;;;;;;3.42;1.20;;;11.70;99.90;;;;;;5099762;28;20425;-65
2022/10/28 06:48:03;;;;;;;1.10;1.02;;;11.80;99.90;;;;;;5111390;28;20957;-65
2022/10/28 06:50:31;;;;;;;1.17;0.98;;;11.80;99.90;;;;;;5094205;28;20437;-65
2022/10/28 06:52:58;;;;;;;0.70;0.70;;;11.90;99.90;;;;;;5099388;28;20431;-65
2022/10/28 06:55:26;;;;;;;2.35;1.40;;;11.90;99.90;;;;;;5097759;28;20481;-65
2022/10/28 06:57:53;;;;;;;2.97;1.38;;;12.00;99.90;;;;;;5084224;28;20433;-66
2022/10/28 07:00:20;;;;;;;1.27;1.17;;;12.00;99.90;;;;;;5093000;28;20451;-65
2022/10/28 07:02:52;;;;;;;0.98;0.98;;;12.10;99.90;;;;;;5089468;28;20427;-65
2022/10/28 07:05:20;;;;;;;2.43;1.50;;;12.20;99.90;;;;;;5085541;28;20440;-65
2022/10/28 07:07:46;;;;;;;2.17;2.08;;;12.20;99.90;;;;;;5091350;28;20501;-68
2022/10/28 07:10:13;;;;;;;1.47;1.37;;;12.40;99.90;;;;;;5094627;28;20426;-67
2022/10/28 07:12:40;;;;;;;1.60;1.33;;;12.50;99.90;;;;;;5099740;28;20432;-67
2022/10/28 07:15:08;;;;;;;14.45;12.98;;;12.50;99.90;;;;;;5086662;28;20448;-66
2022/10/28 07:17:36;;;;;;;9.77;8.82;;;12.60;99.90;;;;;;5093486;28;20427;-66
2022/10/28 07:20:04;;;;;;;54.85;46.65;;;12.70;99.90;;;;;;5085277;28;20426;-65
2022/10/28 07:22:31;;;;;;;17.55;15.65;;;12.80;99.90;;;;;;5104605;28;20424;-65
2022/10/28 07:24:57;;;;;;;9.18;8.27;;;12.80;99.90;;;;;;5088432;28;20421;-66
2022/10/28 07:27:24;;;;;;;2.63;2.42;;;12.90;99.90;;;;;;5106036;27;20435;-64
2022/10/28 07:29:51;;;;;;;2.63;2.08;;;12.90;99.90;;;;;;5096193;27;20427;-65
2022/10/28 07:32:18;;;;;;;1.25;1.20;;;12.90;99.90;;;;;;5090849;27;20445;-65
2022/10/28 07:34:44;;;;;;;2.05;1.77;;;13.00;99.90;;;;;;5090519;27;20454;-65
2022/10/28 07:37:14;;;;;;;1.60;1.50;;;13.10;99.90;;;;;;5096005;28;20422;-65
2022/10/28 07:39:41;;;;;;;2.17;1.70;;;13.20;99.90;;;;;;5095714;28;20563;-65
2022/10/28 07:42:07;;;;;;;1.75;1.65;;;13.30;99.90;;;;;;5095626;28;20448;-65
2022/10/28 07:44:34;;;;;;;1.75;1.38;;;13.50;99.90;;;;;;5097081;27;20424;-64
2022/10/28 07:47:01;;;;;;;1.27;1.27;;;13.60;99.90;;;;;;5098598;28;20432;-66
2022/10/28 07:49:27;;;;;;;1.60;1.50;;;13.80;99.90;;;;;;5096865;28;20453;-66
2022/10/28 07:51:54;;;;;;;1.55;1.48;;;13.90;99.90;;;;;;5098753;28;20539;-68
2022/10/28 07:54:21;;;;;;;1.60;1.50;;;14.00;99.90;;;;;;5095759;28;20425;-69
2022/10/28 07:56:47;;;;;;;2.13;1.60;;;14.10;99.90;;;;;;5104471;27;20421;-68
2022/10/28 07:59:14;;;;;;;2.65;1.58;;;14.20;99.90;;;;;;5096554;27;20429;-69
2022/10/28 08:01:40;;;;;;;1.40;1.30;;;14.40;99.90;;;;;;5081837;28;20424;-68
2022/10/28 08:04:07;;;;;;;1.48;1.42;;;14.50;99.90;;;;;;5098594;27;20461;-68
2022/10/28 08:06:35;;;;;;;1.45;1.35;;;14.70;99.90;;;;;;5081399;28;21026;-69
2022/10/28 08:09:02;;;;;;;1.58;1.48;;;14.80;99.90;;;;;;5092776;27;20460;-69
2022/10/28 08:11:28;;;;;;;4.27;1.40;;;15.10;99.90;;;;;;5090005;28;20425;-69
2022/10/28 08:13:56;;;;;;;2.53;1.52;;;15.40;99.90;;;;;;5095890;27;20434;-70
2022/10/28 08:16:23;;;;;;;1.92;1.67;;;15.70;99.90;;;;;;5104234;27;20465;-67
2022/10/28 08:18:49;;;;;;;1.55;1.45;;;15.70;99.90;;;;;;5093370;28;20441;-68
2022/10/28 08:21:16;;;;;;;1.42;1.33;;;15.70;1.00;;;;;;5098124;28;20426;-66
2022/10/28 08:23:46;;;;;;;2.25;1.20;;;15.60;1.00;;;;;;5091725;27;20485;-68
2022/10/28 08:26:14;;;;;;;1.30;1.20;;;15.60;99.90;;;;;;5103410;28;20438;-68
2022/10/28 08:28:41;;;;;;;2.85;1.80;;;15.50;1.00;;;;;;5091300;28;20459;-67
2022/10/28 08:31:11;;;;;;;1.65;1.55;;;15.50;99.90;;;;;;5093065;28;20437;-68
2022/10/28 08:33:41;;;;;;;1.37;1.27;;;15.40;99.90;;;;;;5094552;28;20833;-69
2022/10/28 08:36:10;;;;;;;1.42;1.33;;;15.50;99.90;;;;;;5099087;27;20447;-69
2022/10/28 08:38:37;;;;;;;1.58;1.48;;;15.50;1.00;;;;;;5097442;27;20436;-69
2022/10/28 08:41:36;;;;;;;1.15;1.10;;;15.50;1.00;;;;;;5103799;27;20506;-69
2022/10/28 08:44:40;;;;;;;1.88;1.63;;;15.70;1.00;;;;;;5092235;28;20489;-68
2022/10/28 08:47:32;;;;;;;3.83;1.42;;;15.80;99.90;;;;;;5096589;28;20430;-69
2022/10/28 08:50:15;;;;;;;2.00;1.57;;;16.00;99.90;;;;;;5050004;28;20495;-69
2022/10/28 08:52:56;;;;;;;1.83;1.25;;;16.20;1.00;;;;;;5087653;27;20896;-69
2022/10/28 08:55:55;;;;;;;1.83;1.27;;;16.60;99.90;;;;;;5104678;28;20428;-65
2022/10/28 08:58:27;;;;;;;1.70;1.30;;;16.90;1.00;;;;;;5096934;28;20435;-68
2022/10/28 09:00:58;;;;;;;1.63;1.20;;;17.20;1.00;;;;;;5092894;27;20436;-64
2022/10/28 09:03:37;;;;;;;2.80;1.42;;;17.50;99.90;;;;;;5076022;28;20431;-68
2022/10/28 09:06:06;;;;;;;3.63;1.70;;;17.80;28.40;;;;;;5097065;27;21295;-66
2022/10/28 09:08:38;;;;;;;1.55;1.45;;;18.00;1.00;;;;;;5100816;28;20982;-68
2022/10/28 09:11:42;;;;;;;1.20;1.20;;;18.20;1.00;;;;;;5103254;27;20489;-68
2022/10/28 09:14:43;;;;;;;1.38;1.33;;;18.10;1.00;;;;;;5092479;28;20436;-68
2022/10/28 09:17:24;;;;;;;1.77;1.75;;;18.60;1.00;;;;;;5099037;28;20497;-67
2022/10/28 09:19:57;;;;;;;1.40;1.30;;;18.60;1.00;;;;;;5093636;27;20428;-66
2022/10/28 09:22:42;;;;;;;1.58;1.40;;;18.60;1.00;;;;;;5097115;28;20613;-66
2022/10/28 09:25:33;;;;;;;1.55;1.40;;;19.00;1.00;;;;;;5099459;27;20428;-66
2022/10/28 09:28:09;;;;;;;1.50;1.40;;;19.20;99.90;;;;;;5104900;27;20515;-66
2022/10/28 09:30:44;;;;;;;1.77;1.70;;;19.70;99.90;;;;;;5103894;28;20424;-66
2022/10/28 09:33:26;;;;;;;2.25;1.48;;;20.20;99.90;;;;;;5096202;28;20426;-66
2022/10/28 09:35:54;;;;;;;1.17;1.10;;;20.40;99.90;;;;;;5097408;27;20430;-64
2022/10/28 09:38:33;;;;;;;1.77;1.63;;;20.10;99.90;;;;;;5105744;28;20427;-67
2022/10/28 09:41:20;;;;;;;1.77;1.20;;;19.80;99.90;;;;;;5094830;28;20930;-67
2022/10/28 09:43:52;;;;;;;1.30;1.20;;;19.80;99.90;;;;;;5103358;28;20897;-67
2022/10/28 09:46:22;;;;;;;1.75;1.10;;;20.00;99.90;;;;;;5104705;27;20425;-66
2022/10/28 09:48:55;;;;;;;1.90;1.40;;;20.10;99.90;;;;;;5108933;27;20481;-66
2022/10/28 09:51:30;;;;;;;1.48;1.33;;;20.30;99.90;;;;;;5097467;27;20998;-66
2022/10/28 09:53:58;;;;;;;1.50;1.40;;;20.50;99.90;;;;;;5101824;27;20429;-66
2022/10/28 09:56:27;;;;;;;1.17;1.17;;;20.70;99.90;;;;;;5086488;27;20519;-67
2022/10/28 09:58:58;;;;;;;2.47;1.27;;;20.60;99.90;;;;;;5094170;28;20439;-63
2022/10/28 10:01:29;;;;;;;1.60;1.08;;;21.20;99.90;;;;;;5102141;27;20519;-63
2022/10/28 10:03:56;;;;;;;1.30;1.20;;;21.20;99.90;;;;;;5100309;27;20434;-63
2022/10/28 10:06:36;;;;;;;3.00;1.60;;;21.60;99.90;;;;;;5080378;27;20440;-62
2022/10/28 10:09:03;;;;;;;1.42;1.33;;;21.60;99.90;;;;;;5088483;27;20432;-62
2022/10/28 10:11:44;;;;;;;1.27;1.27;;;21.90;99.90;;;;;;5088392;28;20423;-63
2022/10/28 10:14:25;;;;;;;0.80;0.80;;;22.30;99.90;;;;;;5095260;28;20506;-63
2022/10/28 10:17:04;;;;;;;1.45;1.15;;;21.90;99.90;;;;;;5089932;27;20428;-63
2022/10/28 10:19:57;;;;;;;2.53;1.45;;;22.10;99.90;;;;;;5104802;27;20424;-65
2022/10/28 10:22:30;;;;;;;1.80;1.00;;;21.80;99.90;;;;;;5094085;28;20428;-62
2022/10/28 10:24:56;;;;;;;1.08;1.08;;;21.40;99.90;;;;;;5088545;28;20433;-62
2022/10/28 10:27:25;;;;;;;2.40;1.30;;;21.40;99.90;;;;;;5066111;28;20531;-64
2022/10/28 10:29:52;;;;;;;1.55;1.10;;;21.60;99.90;;;;;;5093432;28;20825;-64
2022/10/28 10:32:27;;;;;;;1.70;1.20;;;21.50;99.90;;;;;;5086139;28;20448;-65
2022/10/28 10:35:19;;;;;;;1.00;1.00;;;21.80;99.90;;;;;;5096768;28;20432;-64
2022/10/28 10:37:47;;;;;;;1.83;1.08;;;21.80;99.90;;;;;;5106354;28;20955;-63
2022/10/28 10:40:32;;;;;;;1.15;1.10;;;21.60;99.90;;;;;;5094835;28;21146;-63
2022/10/28 10:43:20;;;;;;;1.27;1.20;;;21.70;99.90;;;;;;5090308;28;20453;-62
2022/10/28 10:46:10;;;;;;;1.13;1.13;;;21.60;99.90;;;;;;5098082;28;20900;-63
2022/10/28 10:48:39;;;;;;;1.70;1.05;;;21.80;99.90;;;;;;5084804;28;20422;-63
2022/10/28 10:51:09;;;;;;;1.13;1.02;;;21.80;99.90;;;;;;5091429;28;20417;-63
2022/10/28 10:53:38;;;;;;;1.27;1.13;;;21.80;99.90;;;;;;5092886;28;20427;-65
2022/10/28 10:56:09;;;;;;;0.80;0.80;;;22.30;99.90;;;;;;5089344;28;20514;-65
2022/10/28 10:58:51;;;;;;;1.23;1.08;;;22.30;99.90;;;;;;5101145;28;20427;-63
2022/10/28 11:01:27;;;;;;;1.17;1.17;;;22.20;99.90;;;;;;5102117;27;20506;-64
2022/10/28 11:04:01;;;;;;;1.63;1.00;;;21.80;99.90;;;;;;5111981;27;20429;-65
2022/10/28 11:06:39;;;;;;;1.08;0.98;;;21.60;99.90;;;;;;5103734;27;20482;-65
2022/10/28 11:09:28;;;;;;;1.10;1.00;;;21.20;99.90;;;;;;5106537;27;20436;-65
2022/10/28 11:11:55;;;;;;;1.38;1.17;;;21.50;99.90;;;;;;5094173;27;20438;-65
2022/10/28 11:14:23;;;;;;;0.93;0.93;;;21.70;99.90;;;;;;5094467;28;20536;-65
2022/10/28 11:16:59;;;;;;;1.35;1.25;;;22.00;99.90;;;;;;5091939;28;20427;-65
2022/10/28 11:19:33;;;;;;;0.82;0.82;;;22.40;99.90;;;;;;5096615;28;20428;-64
2022/10/28 11:22:18;;;;;;;1.73;1.40;;;23.00;99.90;;;;;;5089224;27;20431;-64
2022/10/28 11:25:07;;;;;;;0.98;0.95;;;23.40;99.90;;;;;;5104896;27;20428;-64
2022/10/28 11:27:57;;;;;;;0.88;0.82;;;23.70;99.90;;;;;;5099729;28;20948;-63
2022/10/28 11:31:06;;;;;;;1.65;1.00;;;23.80;99.90;;;;;;5098545;28;20466;-64
2022/10/28 11:34:11;;;;;;;0.90;0.90;;;24.10;99.90;;;;;;5101360;28;20428;-62
2022/10/28 11:36:56;;;;;;;1.00;1.00;;;24.40;99.90;;;;;;5098827;27;20418;-63
2022/10/28 11:39:41;;;;;;;2.40;0.85;;;24.10;99.90;;;;;;5097222;28;20465;-63
2022/10/28 11:42:33;;;;;;;2.80;1.10;;;23.90;99.90;;;;;;5100731;27;20448;-63
2022/10/28 11:45:24;;;;;;;1.55;1.20;;;23.70;99.90;;;;;;5096905;27;20437;-63
2022/10/28 11:48:12;;;;;;;1.80;0.80;;;23.40;99.90;;;;;;5093969;27;21022;-63
2022/10/28 11:50:58;;;;;;;1.08;1.00;;;23.40;99.90;;;;;;5094710;28;20432;-63
2022/10/28 11:53:43;;;;;;;1.20;0.90;;;23.20;99.90;;;;;;5102702;27;20432;-63
2022/10/28 11:56:31;;;;;;;1.00;1.00;;;23.20;99.90;;;;;;5101167;27;20422;-63
2022/10/28 11:59:19;;;;;;;1.10;1.00;;;22.90;99.90;;;;;;5093716;28;20441;-63
2022/10/28 12:02:24;;;;;;;1.00;0.77;;;23.10;99.90;;;;;;5098547;28;20991;-63
2022/10/28 12:05:28;;;;;;;1.27;0.80;;;23.20;99.90;;;;;;5017089;28;20488;-63
2022/10/28 12:08:20;;;;;;;0.80;0.80;;;23.20;99.90;;;;;;5012967;28;20490;-63
2022/10/28 12:11:08;;;;;;;1.00;1.00;;;23.10;99.90;;;;;;5013680;28;20430;-63
2022/10/28 12:14:01;;;;;;;1.30;1.20;;;23.00;99.90;;;;;;5011221;28;21028;-63
2022/10/28 12:17:13;;;;;;;1.13;1.08;;;23.10;99.90;;;;;;5024438;28;20510;-63
2022/10/28 12:19:55;;;;;;;1.30;0.90;;;23.10;99.90;;;;;;5002748;28;20437;-63
2022/10/28 12:22:45;;;;;;;1.40;1.30;;;22.90;99.90;;;;;;5015843;28;20442;-62
2022/10/28 12:25:16;;;;;;;1.10;1.00;;;23.00;99.90;;;;;;5013646;28;20801;-65
2022/10/28 12:27:49;;;;;;;2.53;0.98;;;23.10;99.90;;;;;;5019269;28;20433;-66
2022/10/28 12:30:22;;;;;;;2.10;1.10;;;23.20;99.90;;;;;;5016362;28;20474;-64
2022/10/28 12:32:54;;;;;;;0.80;0.80;;;23.40;99.90;;;;;;5013887;28;20430;-64
2022/10/28 12:35:26;;;;;;;0.90;0.90;;;23.50;99.90;;;;;;5051207;28;20513;-62
2022/10/28 12:38:11;;;;;;;0.90;0.90;;;23.50;99.90;;;;;;5101698;28;20424;-62
2022/10/28 12:40:44;;;;;;;1.95;0.77;;;23.90;99.90;;;;;;5095063;27;20893;-62
2022/10/28 12:43:20;;;;;;;1.70;0.80;;;24.10;99.90;;;;;;5081301;28;20428;-62
2022/10/28 12:45:48;;;;;;;1.00;1.00;;;24.10;99.90;;;;;;5098606;28;20472;-62
2022/10/28 12:48:26;;;;;;;0.88;0.88;;;23.60;99.90;;;;;;5098488;28;20837;-62
2022/10/28 12:50:53;;;;;;;1.92;0.80;;;23.40;99.90;;;;;;5104082;28;20989;-62
2022/10/28 12:53:27;;;;;;;1.10;1.00;;;23.50;99.90;;;;;;5097625;27;20478;-62
2022/10/28 12:55:58;;;;;;;1.90;1.20;;;23.60;99.90;;;;;;5097906;28;20472;-62
2022/10/28 12:58:51;;;;;;;0.90;0.90;;;23.50;99.90;;;;;;5098164;28;20452;-62
2022/10/28 13:01:26;;;;;;;2.30;1.08;;;23.60;99.90;;;;;;5099505;28;20485;-62
2022/10/28 13:03:53;;;;;;;0.95;0.95;;;23.50;99.90;;;;;;5099452;27;20515;-61
2022/10/28 13:06:49;;;;;;;1.27;1.20;;;23.60;99.90;;;;;;5100178;28;20424;-62
2022/10/28 13:09:36;;;;;;;1.35;1.10;;;23.50;99.90;;;;;;5071697;28;20424;-62
2022/10/28 13:12:23;;;;;;;1.27;1.17;;;23.20;99.90;;;;;;5094229;28;20510;-62
2022/10/28 13:15:26;;;;;;;1.40;0.93;;;23.30;99.90;;;;;;5092919;27;20473;-62
2022/10/28 13:18:02;;;;;;;0.80;0.80;;;23.40;99.90;;;;;;5094547;28;20939;-62
2022/10/28 13:20:53;;;;;;;0.70;0.70;;;23.40;99.90;;;;;;5089966;28;20427;-62